PWSweather.com
Personal Weather Stations
Station Observations
2450ARBOR
Round Rock, TX 78681

Round Rock, TX 78681

Lat: 30.535239, Lon: -97.728137

Elevation: 800

Station Type:

Latest ConditionsUpdated 7:44:00 AM CDT Monday, Jun 24, 2019
Currently Today's Max Today's Min Today's Average
Temperature 71.4°F21.9°C 82.9°F28.3°C 66.4°F19.1°C 75.6°F24.2°C
Dew Point 71.1°F21.7°C 77.9°F25.5°C 64.9°F18.3°C 72.5°F22.5°C
Winds Calm Calm 5.0 mph -8.0 kmh - - 1.2 mph 1.9 kmh
Wind Gusts -- 7.0 mph11.3 kmh - -
Humidity 99% 99% 75% 90%
Pressure 29.01 in982.4 mb 29.05 in983.7 mb 28.95 in980.4 mb -
Precipitation - 0.36 in9.1 mm - -
Hour Temp Dew Point Humidity Winds Wind Gusts Pressure Precip Precip Rate Daily Precip Total
07:44 AM 71.4°F21.9°C 71.1°F21.7°C 99% Calm Calm -- 29.01 in982.4 mb 0.00 in0.0 mm 0.00 in0.0 mm 0.36 in9.1 mm
07:39 AM 71.1°F21.7°C 70.8°F21.6°C 99% Calm Calm -- 29.01 in982.4 mb 0.00 in0.0 mm 0.00 in0.0 mm 0.36 in9.1 mm
07:34 AM 70.9°F21.6°C 70.6°F21.4°C 99% Calm Calm -- 29.01 in982.4 mb 0.00 in0.0 mm 0.00 in0.0 mm 0.36 in9.1 mm
07:29 AM 70.9°F21.6°C 70.6°F21.4°C 99% Calm Calm -- 29.00 in982.1 mb 0.00 in0.0 mm 0.00 in0.0 mm 0.36 in9.1 mm
07:24 AM 70.5°F21.4°C 70.2°F21.2°C 99% Calm Calm -- 29.00 in982.1 mb 0.00 in0.0 mm 0.00 in0.0 mm 0.36 in9.1 mm
07:20 AM 70.3°F21.3°C 70.0°F21.1°C 99% Calm Calm -- 29.00 in982.1 mb 0.00 in0.0 mm 0.00 in0.0 mm 0.36 in9.1 mm
07:14 AM 70.2°F21.2°C 69.9°F21.1°C 99% Calm Calm -- 29.00 in982.1 mb 0.00 in0.0 mm 0.00 in0.0 mm 0.36 in9.1 mm
07:09 AM 70.0°F21.1°C 69.7°F20.9°C 99% Calm Calm -- 29.00 in982.1 mb 0.00 in0.0 mm 0.00 in0.0 mm 0.36 in9.1 mm
07:04 AM 69.4°F20.8°C 69.1°F20.6°C 99% Calm Calm -- 28.99 in981.7 mb 0.00 in0.0 mm 0.00 in0.0 mm 0.36 in9.1 mm
06:59 AM 69.3°F20.7°C 69.0°F20.6°C 99% Calm Calm -- 28.99 in981.7 mb 0.00 in0.0 mm 0.00 in0.0 mm 0.36 in9.1 mm
06:54 AM 69.3°F20.7°C 69.0°F20.6°C 99% Calm Calm -- 28.99 in981.7 mb 0.00 in0.0 mm 0.00 in0.0 mm 0.36 in9.1 mm
06:49 AM 69.3°F20.7°C 69.0°F20.6°C 99% Calm Calm -- 28.99 in981.7 mb 0.00 in0.0 mm 0.00 in0.0 mm 0.36 in9.1 mm
06:44 AM 68.9°F20.5°C 68.6°F20.3°C 99% Calm Calm -- 28.98 in981.4 mb 0.00 in0.0 mm 0.00 in0.0 mm 0.36 in9.1 mm
06:39 AM 68.7°F20.4°C 68.4°F20.2°C 99% Calm Calm -- 28.98 in981.4 mb 0.00 in0.0 mm 0.00 in0.0 mm 0.36 in9.1 mm
06:34 AM 68.4°F20.2°C 68.1°F20.1°C 99% Calm Calm -- 29.00 in982.1 mb 0.00 in0.0 mm 0.00 in0.0 mm 0.36 in9.1 mm
06:29 AM 67.5°F19.7°C 67.2°F19.6°C 99% Calm Calm -- 29.00 in982.1 mb 0.00 in0.0 mm 0.00 in0.0 mm 0.36 in9.1 mm
06:24 AM 67.5°F19.7°C 67.2°F19.6°C 99% Calm Calm -- 29.01 in982.4 mb 0.00 in0.0 mm 0.00 in0.0 mm 0.36 in9.1 mm
06:19 AM 67.3°F19.6°C 67.0°F19.4°C 99% Calm Calm -- 29.00 in982.1 mb 0.00 in0.0 mm 0.00 in0.0 mm 0.36 in9.1 mm
06:14 AM 67.3°F19.6°C 67.0°F19.4°C 99% Calm Calm -- 28.99 in981.7 mb 0.00 in0.0 mm 0.00 in0.0 mm 0.36 in9.1 mm
06:09 AM 66.7°F19.3°C 66.1°F18.9°C 98% Calm Calm -- 28.99 in981.7 mb 0.00 in0.0 mm 0.00 in0.0 mm 0.36 in9.1 mm
06:04 AM 66.4°F19.1°C 65.8°F18.8°C 98% Calm Calm -- 28.99 in981.7 mb 0.02 in0.5 mm 0.00 in0.0 mm 0.36 in9.1 mm
05:59 AM 66.4°F19.1°C 65.8°F18.8°C 98% Calm Calm -- 29.00 in982.1 mb 0.02 in0.5 mm 0.00 in0.0 mm 0.36 in9.1 mm
05:54 AM 66.4°F19.1°C 65.8°F18.8°C 98% Calm Calm -- 29.01 in982.4 mb 0.06 in1.5 mm 0.00 in0.0 mm 0.36 in9.1 mm
05:49 AM 66.4°F19.1°C 65.5°F18.6°C 97% Calm Calm -- 29.01 in982.4 mb 0.06 in1.5 mm 0.00 in0.0 mm 0.36 in9.1 mm
05:44 AM 66.4°F19.1°C 65.5°F18.6°C 97% Calm Calm -- 29.01 in982.4 mb 0.24 in6.1 mm 0.00 in0.0 mm 0.36 in9.1 mm
05:39 AM 66.4°F19.1°C 65.5°F18.6°C 97% Calm Calm -- 29.02 in982.7 mb 0.24 in6.1 mm 0.00 in0.0 mm 0.36 in9.1 mm
05:34 AM 66.4°F19.1°C 65.2°F18.4°C 96% Calm Calm 1.0 mph1.6 kmh 29.02 in982.7 mb 0.32 in8.1 mm 0.00 in0.0 mm 0.36 in9.1 mm
05:29 AM 66.6°F19.2°C 65.4°F18.6°C 96% 1.0 mph SSE1.6 kmh SSE 1.0 mph1.6 kmh 29.03 in983.1 mb 0.32 in8.1 mm 0.00 in0.0 mm 0.36 in9.1 mm
05:25 AM 66.6°F19.2°C 65.4°F18.6°C 96% 1.0 mph SSE1.6 kmh SSE 1.0 mph1.6 kmh 29.03 in983.1 mb 0.36 in9.1 mm 0.00 in0.0 mm 0.36 in9.1 mm
05:19 AM 66.6°F19.2°C 65.4°F18.6°C 96% Calm Calm -- 29.03 in983.1 mb 0.36 in9.1 mm 0.00 in0.0 mm 0.36 in9.1 mm
05:14 AM 66.6°F19.2°C 65.1°F18.4°C 95% Calm Calm -- 29.03 in983.1 mb 0.36 in9.1 mm 0.24 in6.1 mm 0.36 in9.1 mm
05:09 AM 66.7°F19.3°C 65.2°F18.4°C 95% Calm Calm -- 29.03 in983.1 mb 0.34 in8.6 mm 0.12 in3.0 mm 0.34 in8.6 mm
05:04 AM 66.7°F19.3°C 64.9°F18.3°C 94% Calm Calm -- 29.04 in983.4 mb 0.33 in8.4 mm 0.03 in0.8 mm 0.33 in8.4 mm
04:59 AM 67.3°F19.6°C 65.5°F18.6°C 94% Calm Calm 1.0 mph1.6 kmh 29.05 in983.7 mb 0.30 in7.6 mm 0.72 in18.3 mm 0.30 in7.6 mm
04:54 AM 67.5°F19.7°C 65.1°F18.4°C 92% Calm Calm 2.0 mph3.2 kmh 29.05 in983.7 mb 0.24 in6.1 mm 1.20 in30.5 mm 0.24 in6.1 mm
04:49 AM 67.8°F19.9°C 65.1°F18.4°C 91% Calm Calm 1.0 mph1.6 kmh 29.04 in983.4 mb 0.14 in3.6 mm 0.48 in12.2 mm 0.14 in3.6 mm
04:44 AM 68.5°F20.3°C 65.4°F18.6°C 90% 2.0 mph 3.2 kmh 7.0 mph11.3 kmh 29.05 in983.7 mb 0.10 in2.5 mm 0.48 in12.2 mm 0.10 in2.5 mm
04:39 AM 69.4°F20.8°C 66.3°F19.1°C 90% 1.0 mph NNW1.6 kmh NNW 5.0 mph8.0 kmh 29.05 in983.7 mb 0.06 in1.5 mm 0.48 in12.2 mm 0.06 in1.5 mm
04:34 AM 70.3°F21.3°C 66.9°F19.4°C 89% 2.0 mph SSE3.2 kmh SSE 4.0 mph6.4 kmh 29.05 in983.7 mb 0.02 in0.5 mm 0.24 in6.1 mm 0.02 in0.5 mm
04:29 AM 71.6°F22.0°C 67.5°F19.7°C 87% 3.0 mph NE4.8 kmh NE 4.0 mph6.4 kmh 29.05 in983.7 mb 0.00 in0.0 mm 0.00 in0.0 mm 0.00 in0.0 mm
04:24 AM 73.0°F22.8°C 67.5°F19.7°C 83% 5.0 mph SSE8.0 kmh SSE 5.0 mph8.0 kmh 29.04 in983.4 mb 0.00 in0.0 mm 0.00 in0.0 mm 0.00 in0.0 mm
04:19 AM 75.0°F23.9°C 68.0°F20.0°C 79% 1.0 mph 1.6 kmh 4.0 mph6.4 kmh 29.04 in983.4 mb 0.00 in0.0 mm 0.00 in0.0 mm 0.00 in0.0 mm
04:14 AM 76.5°F24.7°C 68.7°F20.4°C 77% 1.0 mph W1.6 kmh W 4.0 mph6.4 kmh 29.04 in983.4 mb 0.00 in0.0 mm 0.00 in0.0 mm 0.00 in0.0 mm
04:09 AM 77.5°F25.3°C 68.9°F20.5°C 75% 1.0 mph NNE1.6 kmh NNE 2.0 mph3.2 kmh 29.02 in982.7 mb 0.00 in0.0 mm 0.00 in0.0 mm 0.00 in0.0 mm
04:05 AM 80.4°F26.9°C 75.1°F23.9°C 84% 3.0 mph WNW4.8 kmh WNW 4.0 mph6.4 kmh 29.02 in982.7 mb 0.00 in0.0 mm 0.00 in0.0 mm 0.00 in0.0 mm
03:59 AM 80.8°F27.1°C 76.9°F24.9°C 88% 2.0 mph NNW3.2 kmh NNW 2.0 mph3.2 kmh 29.03 in983.1 mb 0.00 in0.0 mm 0.00 in0.0 mm 0.00 in0.0 mm
03:55 AM 80.8°F27.1°C 76.9°F24.9°C 88% Calm Calm 3.0 mph4.8 kmh 29.02 in982.7 mb 0.00 in0.0 mm 0.00 in0.0 mm 0.00 in0.0 mm
03:49 AM 80.8°F27.1°C 76.9°F24.9°C 88% 4.0 mph ESE6.4 kmh ESE 4.0 mph6.4 kmh 29.01 in982.4 mb 0.00 in0.0 mm 0.00 in0.0 mm 0.00 in0.0 mm
03:45 AM 80.8°F27.1°C 76.9°F24.9°C 88% 2.0 mph NE3.2 kmh NE 2.0 mph3.2 kmh 29.01 in982.4 mb 0.00 in0.0 mm 0.00 in0.0 mm 0.00 in0.0 mm
03:39 AM 81.0°F27.2°C 77.1°F25.1°C 88% Calm Calm 2.0 mph3.2 kmh 29.00 in982.1 mb 0.00 in0.0 mm 0.00 in0.0 mm 0.00 in0.0 mm
03:34 AM 81.0°F27.2°C 77.1°F25.1°C 88% 1.0 mph NNE1.6 kmh NNE 3.0 mph4.8 kmh 29.00 in982.1 mb 0.00 in0.0 mm 0.00 in0.0 mm 0.00 in0.0 mm
03:29 AM 81.0°F27.2°C 77.1°F25.1°C 88% 2.0 mph S3.2 kmh S 2.0 mph3.2 kmh 29.01 in982.4 mb 0.00 in0.0 mm 0.00 in0.0 mm 0.00 in0.0 mm
03:24 AM 81.0°F27.2°C 76.8°F24.9°C 87% Calm Calm 4.0 mph6.4 kmh 29.01 in982.4 mb 0.00 in0.0 mm 0.00 in0.0 mm 0.00 in0.0 mm
03:19 AM 81.0°F27.2°C 76.8°F24.9°C 87% 1.0 mph NNE1.6 kmh NNE 2.0 mph3.2 kmh 29.00 in982.1 mb 0.00 in0.0 mm 0.00 in0.0 mm 0.00 in0.0 mm
03:14 AM 81.0°F27.2°C 76.8°F24.9°C 87% Calm Calm 3.0 mph4.8 kmh 29.00 in982.1 mb 0.00 in0.0 mm 0.00 in0.0 mm 0.00 in0.0 mm
03:09 AM 81.0°F27.2°C 76.8°F24.9°C 87% 2.0 mph SSE3.2 kmh SSE 4.0 mph6.4 kmh 29.00 in982.1 mb 0.00 in0.0 mm 0.00 in0.0 mm 0.00 in0.0 mm
03:04 AM 81.0°F27.2°C 76.8°F24.9°C 87% 2.0 mph SSE3.2 kmh SSE 2.0 mph3.2 kmh 29.00 in982.1 mb 0.00 in0.0 mm 0.00 in0.0 mm 0.00 in0.0 mm
02:59 AM 81.0°F27.2°C 76.8°F24.9°C 87% 1.0 mph SSE1.6 kmh SSE 4.0 mph6.4 kmh 28.99 in981.7 mb 0.00 in0.0 mm 0.00 in0.0 mm 0.00 in0.0 mm
02:54 AM 81.0°F27.2°C 76.8°F24.9°C 87% 1.0 mph S1.6 kmh S 2.0 mph3.2 kmh 28.99 in981.7 mb 0.00 in0.0 mm 0.00 in0.0 mm 0.00 in0.0 mm
02:49 AM 81.0°F27.2°C 76.8°F24.9°C 87% 1.0 mph SSE1.6 kmh SSE 2.0 mph3.2 kmh 28.99 in981.7 mb 0.00 in0.0 mm 0.00 in0.0 mm 0.00 in0.0 mm
02:44 AM 81.0°F27.2°C 76.8°F24.9°C 87% Calm Calm 3.0 mph4.8 kmh 28.98 in981.4 mb 0.00 in0.0 mm 0.00 in0.0 mm 0.00 in0.0 mm
02:39 AM 81.0°F27.2°C 76.8°F24.9°C 87% 2.0 mph SSE3.2 kmh SSE 5.0 mph8.0 kmh 28.97 in981.0 mb 0.00 in0.0 mm 0.00 in0.0 mm 0.00 in0.0 mm
02:35 AM 81.0°F27.2°C 76.8°F24.9°C 87% 2.0 mph S3.2 kmh S 5.0 mph8.0 kmh 28.96 in980.7 mb 0.00 in0.0 mm 0.00 in0.0 mm 0.00 in0.0 mm
02:29 AM 81.0°F27.2°C 76.8°F24.9°C 87% 1.0 mph SE1.6 kmh SE 4.0 mph6.4 kmh 28.96 in980.7 mb 0.00 in0.0 mm 0.00 in0.0 mm 0.00 in0.0 mm
02:24 AM 81.0°F27.2°C 76.8°F24.9°C 87% 2.0 mph SSE3.2 kmh SSE 4.0 mph6.4 kmh 28.97 in981.0 mb 0.00 in0.0 mm 0.00 in0.0 mm 0.00 in0.0 mm
02:19 AM 81.1°F27.3°C 76.9°F24.9°C 87% 2.0 mph S3.2 kmh S 4.0 mph6.4 kmh 28.97 in981.0 mb 0.00 in0.0 mm 0.00 in0.0 mm 0.00 in0.0 mm
02:14 AM 81.1°F27.3°C 76.9°F24.9°C 87% 3.0 mph NE4.8 kmh NE 4.0 mph6.4 kmh 28.97 in981.0 mb 0.00 in0.0 mm 0.00 in0.0 mm 0.00 in0.0 mm
02:09 AM 81.1°F27.3°C 76.9°F24.9°C 87% 1.0 mph SSE1.6 kmh SSE 3.0 mph4.8 kmh 28.97 in981.0 mb 0.00 in0.0 mm 0.00 in0.0 mm 0.00 in0.0 mm
02:04 AM 81.1°F27.3°C 76.9°F24.9°C 87% 2.0 mph S3.2 kmh S 5.0 mph8.0 kmh 28.97 in981.0 mb 0.00 in0.0 mm 0.00 in0.0 mm 0.00 in0.0 mm
01:59 AM 81.1°F27.3°C 76.9°F24.9°C 87% 3.0 mph E4.8 kmh E 4.0 mph6.4 kmh 28.97 in981.0 mb 0.00 in0.0 mm 0.00 in0.0 mm 0.00 in0.0 mm
01:54 AM 81.3°F27.4°C 77.0°F25.0°C 87% 1.0 mph SSE1.6 kmh SSE 2.0 mph3.2 kmh 28.97 in981.0 mb 0.00 in0.0 mm 0.00 in0.0 mm 0.00 in0.0 mm
01:49 AM 81.3°F27.4°C 77.0°F25.0°C 87% 2.0 mph ESE3.2 kmh ESE 4.0 mph6.4 kmh 28.97 in981.0 mb 0.00 in0.0 mm 0.00 in0.0 mm 0.00 in0.0 mm
01:44 AM 81.5°F27.5°C 77.2°F25.1°C 87% 2.0 mph ESE3.2 kmh ESE 5.0 mph8.0 kmh 28.97 in981.0 mb 0.00 in0.0 mm 0.00 in0.0 mm 0.00 in0.0 mm
01:39 AM 81.5°F27.5°C 76.9°F24.9°C 86% 2.0 mph SE3.2 kmh SE 4.0 mph6.4 kmh 28.97 in981.0 mb 0.00 in0.0 mm 0.00 in0.0 mm 0.00 in0.0 mm
01:34 AM 81.5°F27.5°C 76.9°F24.9°C 86% 2.0 mph SSE3.2 kmh SSE 3.0 mph4.8 kmh 28.98 in981.4 mb 0.00 in0.0 mm 0.00 in0.0 mm 0.00 in0.0 mm
01:29 AM 81.7°F27.6°C 77.1°F25.1°C 86% 2.0 mph SSE3.2 kmh SSE 2.0 mph3.2 kmh 28.98 in981.4 mb 0.00 in0.0 mm 0.00 in0.0 mm 0.00 in0.0 mm
01:25 AM 81.7°F27.6°C 77.1°F25.1°C 86% 1.0 mph S1.6 kmh S 3.0 mph4.8 kmh 28.97 in981.0 mb 0.00 in0.0 mm 0.00 in0.0 mm 0.00 in0.0 mm
01:19 AM 81.9°F27.7°C 77.3°F25.2°C 86% 1.0 mph SSE1.6 kmh SSE 3.0 mph4.8 kmh 28.96 in980.7 mb 0.00 in0.0 mm 0.00 in0.0 mm 0.00 in0.0 mm
01:14 AM 81.9°F27.7°C 77.3°F25.2°C 86% 3.0 mph 4.8 kmh 5.0 mph8.0 kmh 28.96 in980.7 mb 0.00 in0.0 mm 0.00 in0.0 mm 0.00 in0.0 mm
01:09 AM 82.0°F27.8°C 77.4°F25.2°C 86% 2.0 mph S3.2 kmh S 2.0 mph3.2 kmh 28.96 in980.7 mb 0.00 in0.0 mm 0.00 in0.0 mm 0.00 in0.0 mm
01:04 AM 82.0°F27.8°C 77.4°F25.2°C 86% 2.0 mph SSE3.2 kmh SSE 5.0 mph8.0 kmh 28.96 in980.7 mb 0.00 in0.0 mm 0.00 in0.0 mm 0.00 in0.0 mm
12:59 AM 82.2°F27.9°C 77.2°F25.1°C 85% 4.0 mph SSE6.4 kmh SSE 5.0 mph8.0 kmh 28.95 in980.4 mb 0.00 in0.0 mm 0.00 in0.0 mm 0.00 in0.0 mm
12:54 AM 82.2°F27.9°C 77.2°F25.1°C 85% 5.0 mph SE8.0 kmh SE 5.0 mph8.0 kmh 28.96 in980.7 mb 0.00 in0.0 mm 0.00 in0.0 mm 0.00 in0.0 mm
12:49 AM 82.4°F28.0°C 77.4°F25.2°C 85% 2.0 mph E3.2 kmh E 4.0 mph6.4 kmh 28.96 in980.7 mb 0.00 in0.0 mm 0.00 in0.0 mm 0.00 in0.0 mm
12:44 AM 82.4°F28.0°C 77.4°F25.2°C 85% 3.0 mph SSE4.8 kmh SSE 4.0 mph6.4 kmh 28.96 in980.7 mb 0.00 in0.0 mm 0.00 in0.0 mm 0.00 in0.0 mm
12:39 AM 82.4°F28.0°C 77.4°F25.2°C 85% 2.0 mph SSE3.2 kmh SSE 6.0 mph9.7 kmh 28.97 in981.0 mb 0.00 in0.0 mm 0.00 in0.0 mm 0.00 in0.0 mm
12:34 AM 82.6°F28.1°C 77.6°F25.3°C 85% 3.0 mph SSE4.8 kmh SSE 6.0 mph9.7 kmh 28.97 in981.0 mb 0.00 in0.0 mm 0.00 in0.0 mm 0.00 in0.0 mm
12:29 AM 82.6°F28.1°C 77.6°F25.3°C 85% 1.0 mph SSE1.6 kmh SSE 3.0 mph4.8 kmh 28.97 in981.0 mb 0.00 in0.0 mm 0.00 in0.0 mm 0.00 in0.0 mm
12:24 AM 82.8°F28.2°C 77.8°F25.4°C 85% 3.0 mph SSW4.8 kmh SSW 5.0 mph8.0 kmh 28.97 in981.0 mb 0.00 in0.0 mm 0.00 in0.0 mm 0.00 in0.0 mm
12:19 AM 82.8°F28.2°C 77.8°F25.4°C 85% 3.0 mph S4.8 kmh S 5.0 mph8.0 kmh 28.97 in981.0 mb 0.00 in0.0 mm 0.00 in0.0 mm 0.00 in0.0 mm
12:14 AM 82.8°F28.2°C 77.8°F25.4°C 85% 3.0 mph SSE4.8 kmh SSE 4.0 mph6.4 kmh 28.98 in981.4 mb 0.00 in0.0 mm 0.00 in0.0 mm 0.00 in0.0 mm
12:09 AM 82.9°F28.3°C 77.9°F25.5°C 85% 2.0 mph ENE3.2 kmh ENE 3.0 mph4.8 kmh 28.97 in981.0 mb 0.00 in0.0 mm 0.00 in0.0 mm 0.00 in0.0 mm
12:05 AM 82.9°F28.3°C 77.9°F25.5°C 85% 1.0 mph S1.6 kmh S 4.0 mph6.4 kmh 28.98 in981.4 mb 0.00 in0.0 mm 0.00 in0.0 mm 0.00 in0.0 mm